Time;durP1;ratioP1;P1;durP2;ratioP2;P2;SDS_P1;SDS_P2;PMS_P1;PMS_P2;Temp;Humidity;BMP_temperature;BMP_pressure;BME280_temperature;BME280_humidity;BME280_pressure;Samples;Min_cycle;Max_cycle;Signal;HPM_P1;HPM_P2
2023/06/05 00:01:47;;;;;;;11.55;6.97;;;;;;;;;;5017288;28;20427;-77
2023/06/05 00:04:13;;;;;;;8.85;6.80;;;;;;;;;;5065785;28;20429;-78
2023/06/05 00:06:39;;;;;;;10.30;6.55;;;;;;;;;;5047681;28;20435;-78
2023/06/05 00:09:06;;;;;;;9.77;6.95;;;;;;;;;;5018379;28;20492;-77
2023/06/05 00:11:33;;;;;;;10.53;6.67;;;;;;;;;;5038010;28;20562;-78
2023/06/05 00:13:59;;;;;;;9.60;6.60;;;;;;;;;;5034421;28;21109;-77
2023/06/05 00:16:25;;;;;;;11.05;6.90;;;;;;;;;;5025411;28;20417;-77
2023/06/05 00:18:51;;;;;;;15.52;6.93;;;;;;;;;;5037833;28;20425;-77
2023/06/05 00:21:18;;;;;;;12.38;7.22;;;;;;;;;;5033736;28;20429;-77
2023/06/05 00:23:45;;;;;;;9.55;6.82;;;;;;;;;;5034178;28;20796;-78
2023/06/05 00:26:11;;;;;;;11.45;7.05;;;;;;;;;;5033278;28;20502;-78
2023/06/05 00:28:38;;;;;;;9.73;6.65;;;;;;;;;;5033096;28;20439;-78
2023/06/05 00:31:05;;;;;;;13.27;7.60;;;;;;;;;;5033234;28;20421;-77
2023/06/05 00:33:31;;;;;;;11.80;7.75;;;11.50;99.90;;;;;;5032934;28;20405;-77
2023/06/05 00:35:57;;;;;;;10.45;7.30;;;;;;;;;;5031688;28;20426;-77
2023/06/05 00:38:23;;;;;;;13.20;7.57;;;;;;;;;;5036010;28;20455;-77
2023/06/05 00:40:49;;;;;;;12.63;7.50;;;11.50;99.90;;;;;;5035442;28;20403;-77
2023/06/05 00:43:16;;;;;;;9.40;7.10;;;11.90;99.90;;;;;;5032745;28;20467;-77
2023/06/05 00:45:42;;;;;;;10.10;7.40;;;11.80;99.90;;;;;;5051245;28;20406;-77
2023/06/05 00:48:08;;;;;;;13.30;7.80;;;;;;;;;;5037299;28;20772;-77
2023/06/05 00:50:36;;;;;;;12.63;7.43;;;;;;;;;;5033807;28;20449;-77
2023/06/05 00:53:03;;;;;;;11.43;7.38;;;;;;;;;;5034017;28;20471;-77
2023/06/05 00:55:29;;;;;;;10.30;7.25;;;;;;;;;;5037087;28;20921;-78
2023/06/05 00:57:55;;;;;;;11.10;7.25;;;;;;;;;;5033326;28;20452;-77
2023/06/05 01:00:23;;;;;;;11.15;7.05;;;;;;;;;;5017052;28;20417;-77
2023/06/05 01:02:53;;;;;;;9.32;6.53;;;11.50;99.90;;;;;;5036978;28;20448;-77
2023/06/05 01:05:19;;;;;;;11.63;7.40;;;;;;;;;;5036434;28;20428;-77
2023/06/05 01:07:48;;;;;;;10.65;6.80;;;;;;;;;;5034069;28;20460;-77
2023/06/05 01:10:14;;;;;;;11.07;7.20;;;;;;;;;;5032738;28;20432;-77
2023/06/05 01:12:43;;;;;;;10.83;6.83;;;;;;;;;;5015076;28;20939;-77
2023/06/05 01:15:09;;;;;;;11.00;7.18;;;;;;;;;;5034819;28;20510;-77
2023/06/05 01:17:36;;;;;;;10.88;7.05;;;;;;;;;;5016129;28;20441;-77
2023/06/05 01:20:06;;;;;;;11.45;7.30;;;;;;;;;;5042802;28;20470;-78
2023/06/05 01:22:34;;;;;;;14.95;7.25;;;;;;;;;;5048635;28;20508;-77
2023/06/05 01:25:01;;;;;;;12.70;7.35;;;;;;;;;;5033604;28;20513;-77
2023/06/05 01:27:27;;;;;;;9.77;7.00;;;;;;;;;;5033042;28;20566;-77
2023/06/05 01:30:13;;;;;;;10.02;7.20;;;11.30;99.90;;;;;;5031779;28;20429;-78
2023/06/05 01:32:54;;;;;;;11.98;7.28;;;;;;;;;;5033538;28;20429;-78
2023/06/05 01:35:27;;;;;;;10.75;7.00;;;11.30;99.90;;;;;;5030972;28;20421;-77
2023/06/05 01:37:54;;;;;;;10.63;7.50;;;;;;;;;;5014906;28;20432;-77
2023/06/05 01:40:22;;;;;;;10.48;7.10;;;11.40;99.90;;;;;;5029403;28;20436;-77
2023/06/05 01:42:50;;;;;;;12.18;7.30;;;;;;;;;;5048789;28;20426;-77
2023/06/05 01:45:17;;;;;;;12.38;7.88;;;;;;;;;;5027159;28;20421;-78
2023/06/05 01:47:45;;;;;;;12.77;7.85;;;11.60;99.90;;;;;;5031973;28;20421;-77
2023/06/05 01:50:14;;;;;;;10.57;7.03;;;;;;;;;;5016971;28;20433;-77
2023/06/05 01:52:41;;;;;;;12.33;7.70;;;11.30;99.90;;;;;;5033391;28;20429;-77
2023/06/05 01:55:14;;;;;;;11.60;7.45;;;;;;;;;;5033641;28;20977;-77
2023/06/05 01:57:41;;;;;;;11.98;8.10;;;;;;;;;;5033131;28;20819;-77
2023/06/05 02:00:12;;;;;;;11.25;7.70;;;;;;;;;;5032695;28;20509;-77
2023/06/05 02:02:41;;;;;;;10.68;7.78;;;;;;;;;;5063212;28;20428;-77
2023/06/05 02:05:08;;;;;;;12.48;7.35;;;;;;;;;;5032508;28;20447;-77
2023/06/05 02:07:37;;;;;;;10.63;7.60;;;;;;;;;;5063484;28;20998;-77
2023/06/05 02:10:05;;;;;;;13.63;7.78;;;;;;;;;;5017013;28;20406;-77
2023/06/05 02:12:32;;;;;;;11.93;8.00;;;11.50;99.90;;;;;;5026408;28;20521;-77
2023/06/05 02:14:58;;;;;;;12.23;7.93;;;;;;;;;;5043654;28;20500;-77
2023/06/05 02:17:24;;;;;;;10.03;7.13;;;;;;;;;;5030045;28;20498;-77
2023/06/05 02:19:51;;;;;;;11.40;7.85;;;11.70;99.90;;;;;;5030947;28;20428;-77
2023/06/05 02:22:17;;;;;;;11.98;8.00;;;;;;;;;;5016529;28;20424;-77
2023/06/05 02:24:43;;;;;;;11.60;7.77;;;;;;;;;;5000978;28;20470;-77
2023/06/05 02:27:10;;;;;;;12.18;7.45;;;;;;;;;;5032856;28;20425;-77
2023/06/05 02:29:37;;;;;;;11.18;7.68;;;;;;;;;;5033897;28;20822;-77
2023/06/05 02:32:04;;;;;;;12.45;8.20;;;11.80;99.90;;;;;;5034601;28;20421;-77
2023/06/05 02:34:30;;;;;;;11.90;7.72;;;;;;;;;;5034083;28;20432;-78
2023/06/05 02:36:56;;;;;;;12.98;7.70;;;;;;;;;;5032239;28;20908;-77
2023/06/05 02:39:22;;;;;;;12.47;8.13;;;;;;;;;;5004844;28;20450;-77
2023/06/05 02:41:48;;;;;;;13.23;7.72;;;;;;;;;;5032729;28;20877;-78
2023/06/05 02:44:14;;;;;;;12.95;8.27;;;;;;;;;;5039168;28;20869;-77
2023/06/05 02:46:40;;;;;;;14.05;8.10;;;;;;;;;;5015074;28;20425;-78
2023/06/05 02:49:06;;;;;;;12.73;7.70;;;;;;;;;;5035360;28;20417;-77
2023/06/05 02:51:32;;;;;;;12.73;8.10;;;11.60;99.90;;;;;;5017144;28;20440;-77
2023/06/05 02:53:58;;;;;;;12.40;8.17;;;;;;;;;;5034043;28;20422;-77
2023/06/05 02:56:26;;;;;;;12.07;7.80;;;;;;;;;;5019068;28;20417;-77
2023/06/05 02:58:53;;;;;;;12.50;7.53;;;;;;;;;;5032346;28;20436;-77
2023/06/05 03:01:21;;;;;;;13.63;8.35;;;;;;;;;;5000305;28;20478;-77
2023/06/05 03:03:48;;;;;;;13.93;9.07;;;;;;;;;;5034702;28;20820;-78
2023/06/05 03:06:17;;;;;;;11.95;8.25;;;11.90;99.90;;;;;;5031165;28;20429;-76
2023/06/05 03:08:43;;;;;;;14.32;8.30;;;12.10;99.90;;;;;;5036086;28;20452;-77
2023/06/05 03:11:10;;;;;;;12.32;8.05;;;;;;;;;;5035388;28;20500;-77
2023/06/05 03:13:36;;;;;;;13.52;8.40;;;;;;;;;;5052900;28;20397;-77
2023/06/05 03:16:02;;;;;;;13.30;8.20;;;;;;;;;;5033253;28;20492;-77
2023/06/05 03:18:28;;;;;;;12.23;8.70;;;11.80;99.90;;;;;;5033298;28;20555;-77
2023/06/05 03:20:55;;;;;;;11.68;8.30;;;;;;;;;;5022346;28;20415;-77
2023/06/05 03:23:28;;;;;;;12.68;8.70;;;11.70;99.90;;;;;;5036049;28;20933;-77
2023/06/05 03:25:55;;;;;;;21.30;8.55;;;11.60;99.90;;;;;;5034989;28;20508;-77
2023/06/05 03:28:22;;;;;;;12.88;8.02;;;11.70;99.90;;;;;;5034458;28;20768;-77
2023/06/05 03:30:49;;;;;;;12.85;8.93;;;;;;;;;;5029969;28;20916;-77
2023/06/05 03:33:17;;;;;;;15.70;8.90;;;;;;;;;;5039030;28;20434;-77
2023/06/05 03:35:45;;;;;;;14.07;8.77;;;11.80;99.90;;;;;;5033551;28;20432;-77
2023/06/05 03:38:11;;;;;;;13.90;8.98;;;;;;;;;;5041053;28;20416;-78
2023/06/05 03:40:39;;;;;;;13.60;8.55;;;;;;;;;;5022443;28;20507;-77
2023/06/05 03:43:05;;;;;;;13.25;9.00;;;12.20;99.90;;;;;;5017623;28;21000;-77
2023/06/05 03:45:32;;;;;;;14.63;8.55;;;;;;;;;;5034056;28;20465;-77
2023/06/05 03:47:59;;;;;;;15.07;8.77;;;;;;;;;;5032267;28;21031;-77
2023/06/05 03:50:28;;;;;;;14.88;9.05;;;;;;;;;;5035668;28;20503;-77
2023/06/05 03:53:01;;;;;;;14.15;8.63;;;;;;;;;;5033621;28;20720;-77
2023/06/05 03:55:36;;;;;;;13.50;8.73;;;;;;;;;;5035522;28;20397;-77
2023/06/05 03:58:02;;;;;;;14.57;9.02;;;;;;;;;;5063980;28;20415;-77
2023/06/05 04:00:28;;;;;;;14.13;8.80;;;;;;;;;;5032840;28;20426;-77
2023/06/05 07:02:09;;;;;;;4.30;2.50;;;15.10;99.90;;;;;;5426556;23;20454;-75
2023/06/05 07:07:32;;;;;;;5.47;2.85;;;;;;;;;;5553867;23;20480;-77
2023/06/05 07:09:58;;;;;;;3.88;2.70;;;;;;;;;;4860699;29;20432;-76
2023/06/05 07:12:23;;;;;;;6.00;3.13;;;15.20;99.90;;;;;;4848593;29;20796;-76
2023/06/05 07:14:50;;;;;;;5.90;3.10;;;;;;;;;;4864004;29;20421;-77
2023/06/05 07:17:16;;;;;;;4.63;3.05;;;15.20;99.90;;;;;;4878113;29;20499;-76
2023/06/05 07:19:42;;;;;;;5.15;3.13;;;;;;;;;;4850239;23;22423;-75
2023/06/05 07:22:08;;;;;;;4.78;3.17;;;;;;;;;;4858647;29;20796;-75
2023/06/05 07:24:38;;;;;;;5.03;3.40;;;;;;;;;;4857224;29;20515;-75
2023/06/05 07:27:05;;;;;;;6.03;3.47;;;;;;;;;;4846007;29;20916;-75
2023/06/05 07:29:31;;;;;;;7.72;4.05;;;15.80;99.90;;;;;;4846976;29;20975;-75
2023/06/05 07:31:58;;;;;;;5.53;3.23;;;15.70;99.90;;;;;;4846148;29;20792;-75
2023/06/05 07:34:25;;;;;;;7.00;3.53;;;15.90;99.90;;;;;;4851994;29;20528;-75
2023/06/05 07:36:52;;;;;;;8.13;4.07;;;16.20;99.90;;;;;;4857088;29;20766;-75
2023/06/05 07:39:22;;;;;;;4.97;3.40;;;16.10;99.90;;;;;;4863865;29;20442;-75
2023/06/05 07:41:48;;;;;;;5.57;3.42;;;;;;;;;;4852992;29;20444;-75
2023/06/05 07:44:16;;;;;;;5.28;3.50;;;16.30;99.90;;;;;;4858470;29;20535;-75
2023/06/05 07:46:42;;;;;;;4.70;3.15;;;16.00;99.90;;;;;;4860539;29;20447;-75
2023/06/05 07:49:09;;;;;;;5.50;2.92;;;;;;;;;;4830524;29;20463;-75
2023/06/05 07:51:36;;;;;;;4.47;2.78;;;15.90;99.90;;;;;;4828227;29;20509;-75
2023/06/05 07:54:12;;;;;;;5.32;3.10;;;15.80;99.90;;;;;;4832402;29;20437;-77
2023/06/05 07:56:39;;;;;;;5.35;3.10;;;;;;;;;;4854223;29;20605;-76
2023/06/05 07:59:06;;;;;;;5.68;3.15;;;15.90;99.90;;;;;;4839267;29;20464;-77
2023/06/05 08:01:36;;;;;;;5.60;3.70;;;15.80;99.90;;;;;;4857769;29;20444;-77
2023/06/05 08:04:10;;;;;;;5.93;3.80;;;16.00;99.90;;;;;;4844254;29;20443;-76
2023/06/05 08:06:40;;;;;;;5.32;3.70;;;16.00;99.90;;;;;;4844491;29;20443;-76
2023/06/05 08:09:08;;;;;;;5.50;3.60;;;15.70;99.90;;;;;;4840556;29;20442;-77
2023/06/05 08:11:34;;;;;;;7.03;3.67;;;16.40;99.90;;;;;;4845625;29;20447;-77
2023/06/05 08:14:05;;;;;;;5.57;3.70;;;;;;;;;;4828464;29;20473;-77
2023/06/05 08:16:31;;;;;;;6.82;4.00;;;;;;;;;;4841421;29;20525;-77
2023/06/05 08:18:57;;;;;;;5.63;3.45;;;;;;;;;;4856268;29;20444;-76
2023/06/05 08:21:23;;;;;;;5.80;3.80;;;;;;;;;;4829230;29;20439;-78
2023/06/05 08:23:49;;;;;;;5.60;3.72;;;17.20;99.90;;;;;;4829551;29;20418;-78
2023/06/05 08:26:15;;;;;;;5.43;3.90;;;17.00;99.90;;;;;;4842119;29;20444;-77
2023/06/05 08:28:41;;;;;;;5.70;3.55;;;17.10;99.90;;;;;;4831754;29;20432;-75
2023/06/05 08:31:10;;;;;;;5.95;3.85;;;17.20;99.90;;;;;;4878972;29;20413;-75
2023/06/05 08:33:37;;;;;;;5.72;3.58;;;17.00;99.90;;;;;;4856512;29;20450;-76
2023/06/05 08:36:04;;;;;;;6.38;3.75;;;17.10;99.90;;;;;;4838600;29;20453;-76
2023/06/05 08:38:30;;;;;;;5.22;3.53;;;17.10;99.90;;;;;;4828649;29;20437;-75
2023/06/05 08:41:00;;;;;;;6.10;3.75;;;;;;;;;;4829007;29;20513;-76
2023/06/05 08:43:26;;;;;;;6.75;3.70;;;;;;;;;;4825480;29;20458;-75
2023/06/05 08:45:55;;;;;;;7.63;3.95;;;17.30;99.90;;;;;;4838398;29;20478;-77
2023/06/05 08:48:21;;;;;;;4.95;3.20;;;17.30;99.90;;;;;;4844231;29;20436;-77
2023/06/05 08:50:51;;;;;;;6.03;3.70;;;17.50;99.90;;;;;;4851545;29;20437;-77
2023/06/05 08:53:18;;;;;;;6.80;3.53;;;;;;;;;;4839044;29;20446;-77
2023/06/05 08:55:45;;;;;;;5.55;3.65;;;17.90;99.90;;;;;;4848442;29;20503;-76
2023/06/05 08:58:13;;;;;;;7.10;3.70;;;18.70;99.90;;;;;;4837601;29;20434;-76
2023/06/05 09:00:40;;;;;;;4.67;3.37;;;18.50;99.90;;;;;;4826553;29;20528;-76
2023/06/05 09:03:06;;;;;;;5.82;3.97;;;;;;;;;;4841916;29;20864;-76
2023/06/05 09:05:32;;;;;;;8.13;3.75;;;18.40;99.90;;;;;;4842613;29;20437;-76
2023/06/05 09:07:58;;;;;;;5.53;3.53;;;18.20;99.90;;;;;;4824434;29;20860;-76
2023/06/05 09:10:29;;;;;;;5.38;3.47;;;18.40;99.90;;;;;;4815706;29;20467;-74
2023/06/05 09:13:00;;;;;;;5.55;3.50;;;18.40;99.90;;;;;;4844035;29;20464;-75
2023/06/05 09:15:27;;;;;;;5.03;3.47;;;18.40;99.90;;;;;;4828435;29;20471;-75
2023/06/05 09:18:07;;;;;;;6.80;3.30;;;18.70;99.90;;;;;;4837194;29;21206;-76
2023/06/05 09:20:34;;;;;;;5.90;3.70;;;18.70;99.90;;;;;;4827546;29;20786;-76
2023/06/05 09:23:02;;;;;;;6.88;3.60;;;19.30;99.90;;;;;;4838507;29;20477;-75
2023/06/05 09:25:45;;;;;;;6.43;3.40;;;19.20;99.90;;;;;;4842828;29;20520;-74
2023/06/05 09:28:11;;;;;;;7.82;3.60;;;18.70;99.90;;;;;;4837766;29;21020;-75
2023/06/05 09:30:57;;;;;;;5.32;3.45;;;18.60;99.90;;;;;;4834012;29;20449;-76
2023/06/05 09:33:30;;;;;;;8.43;3.50;;;18.70;99.90;;;;;;4845797;29;20437;-74
2023/06/05 09:36:06;;;;;;;5.23;3.47;;;19.10;99.90;;;;;;4841942;29;20477;-76
2023/06/05 09:38:33;;;;;;;4.00;2.90;;;19.00;99.90;;;;;;4840574;29;20517;-75
2023/06/05 09:41:10;;;;;;;8.50;2.90;;;19.30;99.90;;;;;;4841378;29;20437;-75
2023/06/05 09:43:43;;;;;;;4.93;3.03;;;19.30;99.90;;;;;;4826349;29;20446;-75
2023/06/05 09:46:10;;;;;;;4.93;3.35;;;19.40;99.90;;;;;;4834945;29;20479;-75
2023/06/05 09:48:37;;;;;;;4.72;3.15;;;19.50;99.90;;;;;;4821466;29;20438;-75
2023/06/05 09:51:15;;;;;;;7.40;3.47;;;19.50;99.90;;;;;;4825343;29;20518;-75
2023/06/05 09:53:43;;;;;;;8.57;3.70;;;19.20;99.90;;;;;;4839443;29;20476;-75
2023/06/05 09:56:13;;;;;;;6.97;3.20;;;;;;;;;;4821350;29;20479;-76
2023/06/05 09:58:48;;;;;;;5.47;3.37;;;19.20;99.90;;;;;;4825083;29;20814;-76
2023/06/05 10:01:22;;;;;;;5.05;3.70;;;19.10;99.90;;;;;;4842451;29;20453;-75
2023/06/05 10:03:58;;;;;;;5.50;3.95;;;19.10;99.90;;;;;;4856901;29;20433;-75
2023/06/05 10:06:28;;;;;;;5.28;3.78;;;19.00;99.90;;;;;;4841830;29;20484;-75
2023/06/05 10:08:56;;;;;;;4.68;3.10;;;19.00;99.90;;;;;;4824382;29;20514;-76
2023/06/05 10:11:23;;;;;;;4.90;3.00;;;;;;;;;;4838293;29;20559;-76
2023/06/05 10:13:50;;;;;;;5.03;2.90;;;19.50;99.90;;;;;;4836754;29;20942;-76
2023/06/05 10:16:20;;;;;;;5.60;3.10;;;19.60;99.90;;;;;;4844650;29;20434;-76
2023/06/05 10:18:47;;;;;;;4.88;3.08;;;20.10;99.90;;;;;;4839370;29;20521;-76
2023/06/05 10:21:17;;;;;;;4.90;3.10;;;20.00;99.90;;;;;;4821063;29;20510;-76
2023/06/05 10:23:47;;;;;;;4.57;3.28;;;19.90;99.90;;;;;;4843959;29;20438;-76
2023/06/05 10:26:30;;;;;;;5.40;3.40;;;20.20;99.90;;;;;;4843957;29;20460;-76
2023/06/05 10:29:18;;;;;;;4.57;3.38;;;19.80;99.90;;;;;;4839245;29;20442;-76
2023/06/05 10:32:14;;;;;;;4.82;3.00;;;19.80;99.90;;;;;;4839069;29;20446;-75
2023/06/05 10:34:51;;;;;;;5.47;3.50;;;20.10;99.90;;;;;;4821871;29;20431;-77
2023/06/05 10:37:41;;;;;;;4.82;3.50;;;20.10;99.90;;;;;;4835688;29;20445;-76
2023/06/05 10:40:09;;;;;;;5.40;3.50;;;;;;;;;;4857296;29;20428;-75
2023/06/05 10:42:35;;;;;;;5.60;3.47;;;20.00;99.90;;;;;;4845500;29;20526;-75
2023/06/05 10:45:01;;;;;;;5.68;3.50;;;20.20;99.90;;;;;;4844950;29;20418;-75
2023/06/05 10:47:33;;;;;;;5.13;3.20;;;20.50;99.90;;;;;;4840406;29;20449;-75
2023/06/05 10:50:19;;;;;;;5.30;3.45;;;20.40;99.90;;;;;;4845750;29;20429;-75
2023/06/05 10:52:49;;;;;;;5.55;3.30;;;20.20;99.90;;;;;;4841846;29;20446;-76
2023/06/05 10:55:16;;;;;;;6.38;3.75;;;20.50;99.90;;;;;;4857701;29;20436;-75
2023/06/05 10:58:00;;;;;;;6.03;3.85;;;20.40;99.90;;;;;;4864884;29;20413;-76
2023/06/05 11:00:30;;;;;;;6.57;3.60;;;20.30;99.90;;;;;;4835678;29;20517;-75
2023/06/05 11:02:57;;;;;;;5.60;3.90;;;20.40;99.90;;;;;;4837219;29;20777;-75
2023/06/05 11:05:23;;;;;;;5.32;3.55;;;20.40;99.90;;;;;;4840396;29;20503;-75
2023/06/05 11:08:10;;;;;;;4.30;3.30;;;20.70;99.90;;;;;;4861226;29;20430;-76
2023/06/05 11:10:36;;;;;;;5.95;3.30;;;;;;;;;;4841600;29;20476;-76
2023/06/05 11:13:02;;;;;;;5.15;3.30;;;20.60;99.90;;;;;;4829868;29;20434;-76
2023/06/05 11:15:27;;;;;;;5.57;3.53;;;20.50;99.90;;;;;;4808615;29;20444;-76
2023/06/05 11:17:53;;;;;;;6.13;3.28;;;20.60;99.90;;;;;;4832478;29;20437;-77
2023/06/05 11:20:28;;;;;;;4.90;3.50;;;21.00;99.90;;;;;;4839541;29;20491;-76
2023/06/05 11:22:54;;;;;;;5.68;3.53;;;20.70;99.90;;;;;;4872911;29;20432;-75
2023/06/05 11:25:30;;;;;;;5.63;3.15;;;20.80;99.90;;;;;;4836831;29;20822;-75
2023/06/05 11:28:01;;;;;;;5.07;3.20;;;20.60;99.90;;;;;;4828516;29;20456;-75
2023/06/05 11:30:31;;;;;;;5.30;3.30;;;20.30;99.90;;;;;;4841016;29;20441;-75
2023/06/05 11:33:14;;;;;;;4.97;3.43;;;20.40;99.90;;;;;;4821543;29;20553;-75
2023/06/05 11:35:42;;;;;;;5.63;3.20;;;21.00;99.90;;;;;;4825258;29;20474;-76
2023/06/05 11:38:11;;;;;;;4.93;3.43;;;20.90;99.90;;;;;;4832366;29;20498;-76
2023/06/05 11:40:38;;;;;;;6.00;3.70;;;20.80;99.90;;;;;;4836892;29;20438;-76
2023/06/05 11:43:06;;;;;;;5.22;3.20;;;20.80;99.90;;;;;;4843952;29;20502;-76
2023/06/05 11:45:36;;;;;;;6.25;3.17;;;20.80;99.90;;;;;;4837631;29;20529;-76
2023/06/05 11:48:10;;;;;;;6.38;3.63;;;20.80;99.90;;;;;;4817918;29;20948;-76
2023/06/05 11:50:37;;;;;;;4.53;3.00;;;21.50;99.90;;;;;;4842486;29;20441;-76
2023/06/05 11:53:12;;;;;;;6.00;3.35;;;21.20;99.90;;;;;;4828398;29;20492;-76
2023/06/05 11:55:54;;;;;;;4.57;2.80;;;21.10;99.90;;;;;;4846766;29;20437;-76
2023/06/05 11:58:22;;;;;;;4.78;3.28;;;21.50;99.90;;;;;;4835078;29;20440;-76
2023/06/05 12:00:49;;;;;;;5.90;3.28;;;21.60;99.90;;;;;;4843822;29;20926;-75
2023/06/05 12:03:22;;;;;;;6.28;3.00;;;22.00;99.90;;;;;;4842726;29;20486;-76
2023/06/05 12:05:48;;;;;;;6.00;3.08;;;21.80;99.90;;;;;;4842697;29;20478;-75
2023/06/05 12:08:37;;;;;;;4.25;3.15;;;20.90;99.90;;;;;;4850628;29;20422;-75
2023/06/05 12:11:03;;;;;;;6.50;2.97;;;22.10;99.90;;;;;;4843688;29;20512;-75
2023/06/05 12:13:47;;;;;;;4.70;3.15;;;22.20;99.90;;;;;;4812487;29;20434;-76
2023/06/05 12:16:13;;;;;;;4.47;3.08;;;22.10;99.90;;;;;;4829548;29;20535;-76
2023/06/05 12:18:38;;;;;;;5.85;3.30;;;22.40;99.90;;;;;;4827366;29;20428;-75
2023/06/05 12:21:06;;;;;;;5.97;3.40;;;21.80;99.90;;;;;;4823633;29;20440;-76
2023/06/05 12:23:32;;;;;;;5.75;3.30;;;22.00;99.90;;;;;;4837378;29;20438;-75
2023/06/05 12:26:04;;;;;;;4.70;3.13;;;22.00;99.90;;;;;;4811867;29;20446;-76
2023/06/05 12:28:31;;;;;;;5.43;3.45;;;22.10;99.90;;;;;;4826736;29;20966;-75
2023/06/05 12:30:58;;;;;;;4.95;3.22;;;21.80;99.90;;;;;;4841724;29;20486;-76
2023/06/05 12:33:24;;;;;;;5.07;3.30;;;22.10;99.90;;;;;;4841372;29;20502;-75
2023/06/05 12:36:06;;;;;;;5.43;3.15;;;22.00;99.90;;;;;;4828157;29;20521;-77
2023/06/05 12:38:42;;;;;;;6.03;3.40;;;21.80;99.90;;;;;;4810973;29;20441;-76
2023/06/05 12:41:08;;;;;;;6.35;2.70;;;21.90;99.90;;;;;;4842741;29;20787;-76
2023/06/05 12:43:38;;;;;;;4.53;3.10;;;21.60;99.90;;;;;;4827843;29;20451;-77
2023/06/05 12:46:05;;;;;;;5.28;3.20;;;22.00;99.90;;;;;;4825462;29;20453;-77
2023/06/05 12:48:31;;;;;;;6.38;3.30;;;21.70;99.90;;;;;;4850351;29;20447;-76
2023/06/05 12:50:57;;;;;;;4.87;3.20;;;22.00;99.90;;;;;;4837127;29;20508;-77
2023/06/05 12:53:23;;;;;;;5.10;3.53;;;22.30;99.90;;;;;;4827550;29;20530;-77
2023/06/05 12:55:49;;;;;;;4.72;3.17;;;21.70;99.90;;;;;;4841815;29;20426;-77
2023/06/05 12:58:15;;;;;;;5.30;3.20;;;21.70;99.90;;;;;;4808787;29;20493;-77
2023/06/05 13:00:41;;;;;;;5.17;3.00;;;21.70;99.90;;;;;;4840807;29;20871;-76
2023/06/05 13:03:07;;;;;;;5.10;2.90;;;21.70;99.90;;;;;;4810506;29;20609;-77
2023/06/05 13:05:32;;;;;;;4.37;3.13;;;21.80;99.90;;;;;;4818890;29;20460;-76
2023/06/05 13:07:58;;;;;;;6.20;3.28;;;22.00;99.90;;;;;;4835366;29;20930;-77
2023/06/05 13:10:25;;;;;;;5.10;3.25;;;21.80;99.90;;;;;;4855880;29;20470;-76
2023/06/05 13:12:51;;;;;;;4.35;2.97;;;20.60;99.90;;;;;;4851037;29;20457;-76
2023/06/05 13:15:17;;;;;;;5.45;3.40;;;21.80;99.90;;;;;;4829434;29;20468;-79
2023/06/05 13:17:43;;;;;;;6.70;3.70;;;21.70;99.90;;;;;;4848009;29;20422;-79
2023/06/05 13:20:12;;;;;;;4.57;3.20;;;21.40;99.90;;;;;;4830088;29;20515;-77
2023/06/05 13:22:41;;;;;;;5.85;3.08;;;21.50;99.90;;;;;;4848339;29;20438;-77
2023/06/05 13:25:08;;;;;;;4.88;3.40;;;21.50;99.90;;;;;;4840702;29;20957;-77
2023/06/05 13:27:35;;;;;;;4.63;3.10;;;21.50;99.90;;;;;;4836648;29;20477;-78
2023/06/05 13:30:02;;;;;;;4.45;3.03;;;22.10;99.90;;;;;;4838997;29;20898;-76
2023/06/05 13:32:28;;;;;;;4.90;3.17;;;22.10;99.90;;;;;;4834823;29;20437;-76
2023/06/05 13:34:53;;;;;;;5.30;3.20;;;21.90;99.90;;;;;;4840826;29;20435;-76
2023/06/05 13:37:20;;;;;;;6.13;3.40;;;22.20;99.90;;;;;;4823715;29;20444;-76
2023/06/05 13:39:46;;;;;;;7.38;3.50;;;22.30;99.90;;;;;;4825454;29;20525;-76
2023/06/05 13:42:12;;;;;;;5.32;3.85;;;22.40;99.90;;;;;;4825008;29;20509;-76
2023/06/05 13:44:38;;;;;;;5.43;3.90;;;22.50;99.90;;;;;;4840051;29;20464;-76
2023/06/05 13:47:04;;;;;;;6.33;3.70;;;22.50;99.90;;;;;;4840802;29;20493;-76
2023/06/05 13:49:30;;;;;;;5.93;3.85;;;22.40;99.90;;;;;;4822928;29;20450;-76
2023/06/05 13:51:57;;;;;;;6.93;4.07;;;22.20;99.90;;;;;;4826737;29;20445;-76
2023/06/05 13:54:23;;;;;;;6.88;4.45;;;22.30;99.90;;;;;;4826131;29;20429;-76
2023/06/05 13:56:51;;;;;;;6.43;4.13;;;22.60;99.90;;;;;;4843185;29;20437;-76
2023/06/05 13:59:17;;;;;;;6.45;4.07;;;22.10;99.90;;;;;;4802905;29;20441;-78
2023/06/05 14:01:42;;;;;;;7.77;5.10;;;22.50;99.90;;;;;;4840421;29;20446;-77
2023/06/05 14:04:08;;;;;;;7.88;4.38;;;22.30;99.90;;;;;;4838150;29;20524;-76
2023/06/05 14:06:38;;;;;;;4.93;4.30;;;22.50;99.90;;;;;;4823687;29;20521;-78
2023/06/05 14:09:04;;;;;;;6.90;4.50;;;22.50;99.90;;;;;;4808836;29;20636;-79
2023/06/05 14:11:30;;;;;;;7.73;4.23;;;22.00;99.90;;;;;;4841647;29;20438;-78
2023/06/05 14:13:56;;;;;;;5.72;4.43;;;22.30;99.90;;;;;;4841679;29;20434;-77
2023/06/05 14:16:22;;;;;;;5.95;4.40;;;22.60;99.90;;;;;;4825069;29;20930;-76
2023/06/05 14:18:48;;;;;;;6.90;4.70;;;22.60;99.90;;;;;;4838087;29;20453;-76
2023/06/05 14:21:13;;;;;;;6.68;4.85;;;22.60;99.90;;;;;;4858994;29;20434;-77
2023/06/05 14:23:40;;;;;;;7.43;4.50;;;22.70;99.90;;;;;;4820388;29;21004;-77
2023/06/05 14:26:05;;;;;;;6.55;4.50;;;22.30;99.90;;;;;;4825206;29;20443;-78
2023/06/05 14:28:31;;;;;;;6.75;4.68;;;22.40;99.90;;;;;;4841371;29;20434;-76
2023/06/05 14:30:57;;;;;;;6.03;4.83;;;22.40;99.90;;;;;;4827435;29;20438;-77
2023/06/05 14:33:22;;;;;;;6.93;4.60;;;22.20;99.90;;;;;;4811418;29;20442;-76
2023/06/05 14:35:48;;;;;;;6.07;4.43;;;22.60;99.90;;;;;;4826584;29;20442;-77
2023/06/05 14:38:14;;;;;;;10.00;4.83;;;22.90;99.90;;;;;;4859200;29;20423;-77
2023/06/05 14:40:41;;;;;;;7.05;4.40;;;22.90;99.90;;;;;;4858946;29;20505;-78
2023/06/05 14:43:07;;;;;;;9.13;5.40;;;23.00;99.90;;;;;;4841037;29;20438;-77
2023/06/05 14:45:32;;;;;;;11.98;6.20;;;23.00;99.90;;;;;;4847507;29;20524;-76
2023/06/05 14:47:58;;;;;;;7.60;5.40;;;23.20;99.90;;;;;;4846111;29;21004;-76
2023/06/05 14:50:24;;;;;;;7.43;5.40;;;23.70;99.90;;;;;;4828863;29;20466;-77
2023/06/05 14:52:50;;;;;;;6.50;5.15;;;23.50;99.90;;;;;;4814304;29;20502;-77
2023/06/05 14:55:15;;;;;;;6.97;4.73;;;23.50;99.70;;;;;;4843553;29;20489;-77
2023/06/05 14:57:41;;;;;;;6.80;5.00;;;22.80;99.90;;;;;;4840155;29;20485;-76
2023/06/05 15:00:08;;;;;;;7.90;5.35;;;22.90;99.90;;;;;;4860725;29;20437;-76
2023/06/05 15:02:34;;;;;;;7.80;5.55;;;23.70;99.90;;;;;;4826844;29;20772;-77
2023/06/05 15:05:01;;;;;;;6.57;5.20;;;23.30;99.80;;;;;;4845102;29;20461;-76
2023/06/05 15:07:38;;;;;;;7.47;5.38;;;23.20;99.80;;;;;;4858578;29;20514;-78
2023/06/05 15:10:06;;;;;;;7.43;4.83;;;23.60;99.80;;;;;;4829251;29;20434;-75
2023/06/05 15:12:31;;;;;;;7.05;5.13;;;24.10;99.60;;;;;;4844105;29;20910;-79
2023/06/05 15:14:57;;;;;;;8.23;5.47;;;23.70;99.10;;;;;;4847742;29;20466;-78
2023/06/05 15:17:23;;;;;;;8.60;6.23;;;23.70;99.20;;;;;;4820028;29;20430;-78
2023/06/05 15:19:49;;;;;;;9.20;5.03;;;23.90;99.10;;;;;;4841932;29;20438;-77
2023/06/05 15:22:15;;;;;;;7.80;5.60;;;23.80;98.70;;;;;;4841962;29;20457;-77
2023/06/05 15:24:40;;;;;;;8.43;5.28;;;23.90;98.90;;;;;;4822223;29;20802;-78
2023/06/05 15:27:07;;;;;;;9.03;5.33;;;23.70;98.90;;;;;;4834692;29;20954;-78
2023/06/05 15:29:33;;;;;;;8.38;5.18;;;23.00;99.40;;;;;;4827243;29;20444;-77
2023/06/05 15:31:59;;;;;;;8.40;5.60;;;23.20;99.30;;;;;;4843192;29;20799;-76
2023/06/05 15:34:24;;;;;;;7.07;4.77;;;23.10;99.30;;;;;;4825988;29;21112;-76
2023/06/05 15:36:50;;;;;;;6.43;4.90;;;23.40;99.30;;;;;;4842029;29;20438;-76
2023/06/05 15:39:16;;;;;;;7.40;4.90;;;23.70;99.40;;;;;;4840941;29;20537;-74
2023/06/05 15:41:42;;;;;;;7.43;5.00;;;23.50;99.00;;;;;;4821135;29;20440;-76
2023/06/05 15:44:09;;;;;;;8.70;4.80;;;24.00;98.90;;;;;;4838353;29;20446;-75
2023/06/05 15:46:35;;;;;;;6.18;4.70;;;23.90;98.30;;;;;;4824927;29;20452;-76
2023/06/05 15:49:02;;;;;;;8.65;4.90;;;24.40;98.50;;;;;;4833468;29;20444;-75
2023/06/05 15:51:27;;;;;;;8.38;5.20;;;24.40;98.00;;;;;;4827935;29;20434;-76
2023/06/05 15:53:55;;;;;;;7.57;4.60;;;24.40;98.10;;;;;;4827045;29;20448;-77
2023/06/05 15:56:21;;;;;;;7.28;4.60;;;24.50;98.20;;;;;;4838614;29;20436;-76
2023/06/05 15:58:46;;;;;;;6.55;5.05;;;24.40;98.20;;;;;;4827199;29;20538;-77
2023/06/05 16:01:13;;;;;;;8.20;5.10;;;24.20;98.30;;;;;;4827660;29;20521;-74
2023/06/05 16:03:39;;;;;;;7.17;4.93;;;24.30;98.10;;;;;;4826482;29;20864;-77
2023/06/05 16:06:05;;;;;;;7.40;5.50;;;24.50;97.80;;;;;;4843020;29;20708;-76
2023/06/05 16:08:31;;;;;;;8.45;5.70;;;24.40;97.70;;;;;;4841007;29;20844;-77
2023/06/05 16:11:00;;;;;;;7.32;5.20;;;24.30;97.70;;;;;;4824745;29;20789;-76
2023/06/05 16:13:27;;;;;;;8.38;5.90;;;24.20;98.00;;;;;;4824394;29;20476;-76
2023/06/05 16:15:52;;;;;;;7.25;5.50;;;24.10;98.00;;;;;;4828647;29;20424;-77
2023/06/05 16:18:18;;;;;;;9.10;5.40;;;24.00;97.90;;;;;;4842160;29;20768;-76
2023/06/05 16:20:44;;;;;;;8.65;6.00;;;23.80;98.00;;;;;;4812013;29;20445;-76
2023/06/05 16:23:10;;;;;;;8.80;5.27;;;23.80;98.20;;;;;;4844313;29;20446;-76